Terminal Aerodrome Forecast
Issued by NWS Corpus Christi, TX

Home | Current Version | Previous Version | Text Only | Print | Product List | Glossary On
Versions: 1 2 3 4 5 6 7 8 9 10 11 12 13 14 15
812
FTUS44 KCRP 122336
TAFCRP
TAF
KCRP 122336Z 1300/1324 14012KT P6SM SCT020
     FM130500 15006KT 5SM BR SCT010
      TEMPO 1307/1309 2SM BR BKN010
     FM130900 16004KT 1SM BR SCT002
      TEMPO 1309/1313 1/2SM FG BKN002
     FM131430 13007KT P6SM SCT035
     FM131900 13014KT P6SM SCT050=

USA.gov is the U.S. government's official web portal to all federal, state and local government web resources and services.